createdAt,value
2023-01-29T09:17:36.075Z,-1.27
2023-01-29T09:20:06.170Z,-1.19
2023-01-29T09:22:33.035Z,-1.12
2023-01-29T09:24:59.988Z,-1.09
2023-01-29T09:27:26.977Z,-1.07
2023-01-29T09:29:53.921Z,-1.05
2023-01-29T09:32:49.675Z,-0.92
2023-01-29T09:35:07.908Z,-0.90
2023-01-29T11:19:53.471Z,-1.20
2023-01-29T11:22:22.638Z,-1.15
2023-01-29T11:25:19.773Z,-1.07
2023-01-29T11:27:50.317Z,-1.04
2023-01-29T11:30:24.820Z,-0.97
2023-01-29T11:32:59.524Z,-0.92
2023-01-29T11:35:26.547Z,-0.84
2023-01-29T11:37:53.443Z,-0.74
2023-01-29T11:40:20.806Z,-0.70
2023-01-29T11:42:48.548Z,-0.70
2023-01-29T11:45:35.212Z,-0.71
2023-01-29T11:48:02.328Z,-0.69
2023-01-29T11:50:33.899Z,-0.67
2023-01-29T11:53:02.104Z,-0.70
2023-01-29T11:55:49.399Z,-0.66
2023-01-29T11:58:24.016Z,-0.66
2023-01-29T12:00:55.492Z,-0.60
2023-01-29T12:03:33.191Z,-0.54
2023-01-29T12:06:02.551Z,-0.54
2023-01-29T12:08:36.595Z,-0.44
2023-01-29T12:11:24.878Z,-0.39
2023-01-29T12:13:56.762Z,-0.37
2023-01-29T12:16:39.286Z,-0.41
2023-01-29T12:19:38.156Z,-0.37
2023-01-29T12:22:12.205Z,-0.35
2023-01-29T12:24:49.400Z,-0.33
2023-01-29T12:27:27.540Z,-0.30
2023-01-29T12:30:31.644Z,-0.32
2023-01-29T12:33:24.852Z,-0.28
2023-01-29T12:36:00.131Z,-0.22
2023-01-29T12:38:28.026Z,-0.20
2023-01-29T12:41:06.899Z,-0.15
2023-01-29T12:43:46.534Z,-0.17
2023-01-29T12:46:23.825Z,-0.15
2023-01-29T12:48:51.677Z,-0.16
2023-01-29T12:51:31.434Z,-0.15
2023-01-29T12:54:13.692Z,-0.13
2023-01-29T12:56:48.898Z,-0.11
2023-01-29T12:59:22.728Z,-0.14
2023-01-29T13:01:56.948Z,-0.09
2023-01-29T13:04:37.187Z,-0.10
2023-01-29T13:07:32.166Z,-0.16
2023-01-29T13:10:17.145Z,-0.20
2023-01-29T13:13:00.118Z,-0.22
2023-01-29T13:15:38.511Z,-0.20
2023-01-29T13:18:20.530Z,-0.19
2023-01-29T13:20:49.830Z,-0.21
2023-01-29T13:23:47.913Z,-0.18
2023-01-29T13:26:19.272Z,-0.21
2023-01-29T13:28:46.532Z,-0.25
2023-01-29T13:31:22.663Z,-0.32
2023-01-29T13:34:12.900Z,-0.28
2023-01-29T13:36:52.517Z,-0.30
2023-01-29T13:39:30.083Z,-0.25
